Terminal Aerodrome Forecast
Issued by NWS

Home | Current Version | Previous Version | Text Only | Print | Product List | Glossary On
Versions: 1 2 3 4 5 6 7 8 9 10 11 12 13 14 15 16
000
FTUS45 KTFX 051738
TAFBZN
TAF
KBZN 051738Z 0518/0618 VRB05KT P6SM SCT110 BKN150
     FM051900 28010KT P6SM SCT070 BKN120
      TEMPO 0523/0603 VRB20G30KT -TSRA BKN050CB
     FM060300 24010KT P6SM VCSH SCT040 BKN070
     FM061200 VRB05KT P6SM SCT070 BKN120=

USA.gov is the U.S. government's official web portal to all federal, state and local government web resources and services.